Terminal Aerodrome Forecast
Issued by NWS Sioux Falls, SD

Home | Current Version | Previous Version | Graphics & Text | Print | Product List | Glossary Off
Versions: 1 2 3 4 5 6 7 8 9 10 11 12 13

000
FTUS43 KFSD 281633 AAA
TAFFSD
TAF AMD
KFSD 281633Z 2817/2912 27012G20KT P6SM BKN020
     FM281900 29015G22KT P6SM SCT035
     FM290100 28008KT P6SM SKC=

USA.gov is the U.S. government's official web portal to all federal, state and local government web resources and services.